Oakland (OAK/KOAK)

Information

Location
Oakland, CA
Local Time
22:35 / 10:35 pm
GMT Time
06:35 / 6:35 am
Gates
Unassigned
No FAA reported delays
METAR KOAK 220553Z 29007KT 10SM FEW017 SCT048 BKN080 BKN130 12/09 A3026 RMK AO2 RAE0454 SLP244 P0000 60017 T01170089 10133 20117 51014
TAF KOAK 220601Z 2206/2312 27009KT P6SM SCT050 BKN080 FM220900 27006KT P6SM SCT030 FM222000 27014G19KT P6SM SCT040 FM230400 27006KT P6SM SKC
  • No charts available